92TA weather

Drennan Farm Airport
Los Fresnos, Texas, United States

Public forecast

Using degrees Fahrenheit for public forecast. Weather courtesy of forecast.io.

Closest aviation weather report (METAR) to Drennan Farm Airport

Closest report is Port Isabel Cameron County Airport, 5.2 nm (9.6 km) ENE. Retrieved 2019/10/18 13:53 UTC (53 minutes ago):

KPIL 181353Z AUTO 33005KT 10SM CLR 22/19 A2983 RMK AO2 SLP099 T02220189

Closest aviation forecast (TAF) to Drennan Farm Airport

Closest forecast is Brownsville South Padre Island International Airport, 12.9 nm (23.8 km) S. Retrieved 2019/10/18 12:22 UTC (2 hours ago):

TAF KBRO 181120Z 1812/1912 34006KT P6SM FEW050 SCT250 FM182100 09010KT P6SM SCT050 BKN150 FM190600 19005KT P6SM FEW250